Aviation Digital Data Service (ADDS)

Output produced by TAFs form (1805 UTC 25 May 2017)
found at http://www.aviationweather.gov/adds/tafs/
 
KALB 251745Z 2518/2618 08005KT 4SM -RA OVC030 WS020/09035KT 
     TEMPO 2518/2520 3SM -RA BR BKN015 
     FM252000 08010G18KT 6SM -RA BR OVC020 
     FM260000 06008KT 6SM BR VCSH OVC015 
     FM260300 05006KT 4SM -RA BR SCT008 OVC015 
     FM260600 01006KT 2SM -RA BR OVC008 
     FM261400 33006KT 5SM -SHRA BR SCT008 OVC012